sensor_id;sensor_type;location;lat;lon;timestamp;pressure;altitude;pressure_sealevel;temperature;humidity
66484;BME280;53299;52.160;7.556;2022-11-25T00:00:05;100732.19;;;16.87;46.94
66484;BME280;53299;52.160;7.556;2022-11-25T00:02:30;100730.41;;;16.87;46.94
66484;BME280;53299;52.160;7.556;2022-11-25T00:04:56;100724.25;;;16.87;46.79
66484;BME280;53299;52.160;7.556;2022-11-25T00:07:21;100726.88;;;16.87;46.88
66484;BME280;53299;52.160;7.556;2022-11-25T00:09:46;100726.88;;;16.87;46.76
66484;BME280;53299;52.160;7.556;2022-11-25T00:12:11;100726.88;;;16.87;46.87
66484;BME280;53299;52.160;7.556;2022-11-25T00:14:37;100728.72;;;16.86;46.80
66484;BME280;53299;52.160;7.556;2022-11-25T00:17:02;100726.88;;;16.87;46.82
66484;BME280;53299;52.160;7.556;2022-11-25T00:19:27;100717.13;;;16.87;46.87
66484;BME280;53299;52.160;7.556;2022-11-25T00:21:52;100710.97;;;16.87;46.57
66484;BME280;53299;52.160;7.556;2022-11-25T00:24:18;100707.50;;;16.86;46.83
66484;BME280;53299;52.160;7.556;2022-11-25T00:26:43;100703.03;;;16.87;46.76
66484;BME280;53299;52.160;7.556;2022-11-25T00:29:10;100703.03;;;16.87;46.81
66484;BME280;53299;52.160;7.556;2022-11-25T00:31:37;100700.38;;;16.87;46.76
66484;BME280;53299;52.160;7.556;2022-11-25T00:34:03;100694.25;;;16.86;46.80
66484;BME280;53299;52.160;7.556;2022-11-25T00:36:30;100695.06;;;16.87;46.79
66484;BME280;53299;52.160;7.556;2022-11-25T00:39:18;100695.06;;;16.87;46.86
66484;BME280;53299;52.160;7.556;2022-11-25T00:41:44;100700.38;;;16.87;46.79
66484;BME280;53299;52.160;7.556;2022-11-25T00:44:11;100689.78;;;16.87;46.67
66484;BME280;53299;52.160;7.556;2022-11-25T00:46:37;100700.38;;;16.87;46.77
66484;BME280;53299;52.160;7.556;2022-11-25T00:49:02;100700.38;;;16.87;46.91
66484;BME280;53299;52.160;7.556;2022-11-25T00:51:27;100697.72;;;16.87;46.96
66484;BME280;53299;52.160;7.556;2022-11-25T00:53:53;100700.38;;;16.87;46.66
66484;BME280;53299;52.160;7.556;2022-11-25T00:56:18;100697.72;;;16.87;46.81
66484;BME280;53299;52.160;7.556;2022-11-25T00:58:44;100696.75;;;16.88;46.86
66484;BME280;53299;52.160;7.556;2022-11-25T01:01:10;100695.06;;;16.87;46.81
66484;BME280;53299;52.160;7.556;2022-11-25T01:03:36;100701.22;;;16.87;46.82
66484;BME280;53299;52.160;7.556;2022-11-25T01:06:08;100703.88;;;16.87;46.71
66484;BME280;53299;52.160;7.556;2022-11-25T01:08:35;100695.94;;;16.87;46.72
66484;BME280;53299;52.160;7.556;2022-11-25T01:11:03;100689.78;;;16.87;46.79
66484;BME280;53299;52.160;7.556;2022-11-25T01:13:29;100682.81;;;16.86;46.72
66484;BME280;53299;52.160;7.556;2022-11-25T01:15:54;100686.28;;;16.86;46.66
66484;BME280;53299;52.160;7.556;2022-11-25T01:18:20;100687.13;;;16.87;46.72
66484;BME280;53299;52.160;7.556;2022-11-25T01:20:45;100683.66;;;16.86;46.79
66484;BME280;53299;52.160;7.556;2022-11-25T01:23:10;100687.13;;;16.87;46.69
66484;BME280;53299;52.160;7.556;2022-11-25T01:25:36;100680.03;;;16.87;46.68
66484;BME280;53299;52.160;7.556;2022-11-25T01:28:02;100676.50;;;16.87;46.83
66484;BME280;53299;52.160;7.556;2022-11-25T01:30:28;100670.38;;;16.86;46.83
66484;BME280;53299;52.160;7.556;2022-11-25T01:32:53;100673.88;;;16.87;46.69
66484;BME280;53299;52.160;7.556;2022-11-25T01:35:18;100673.03;;;16.86;46.79
66484;BME280;53299;52.160;7.556;2022-11-25T01:37:43;100673.03;;;16.86;46.68
66484;BME280;53299;52.160;7.556;2022-11-25T01:40:09;100680.84;;;16.88;46.70
66484;BME280;53299;52.160;7.556;2022-11-25T01:42:41;100670.38;;;16.86;46.69
66484;BME280;53299;52.160;7.556;2022-11-25T01:47:49;100668.56;;;16.87;46.79
66484;BME280;53299;52.160;7.556;2022-11-25T01:50:17;100676.50;;;16.87;46.82
66484;BME280;53299;52.160;7.556;2022-11-25T01:52:47;100673.88;;;16.87;46.60
66484;BME280;53299;52.160;7.556;2022-11-25T01:57:46;100679.16;;;16.87;46.80
66484;BME280;53299;52.160;7.556;2022-11-25T02:00:13;100679.16;;;16.87;46.63
66484;BME280;53299;52.160;7.556;2022-11-25T02:02:39;100664.28;;;16.86;46.72
66484;BME280;53299;52.160;7.556;2022-11-25T02:05:09;100673.03;;;16.86;46.77
66484;BME280;53299;52.160;7.556;2022-11-25T02:07:39;100673.88;;;16.87;46.75
66484;BME280;53299;52.160;7.556;2022-11-25T02:10:24;100664.28;;;16.86;46.75
66484;BME280;53299;52.160;7.556;2022-11-25T02:12:50;100671.22;;;16.87;46.74
66484;BME280;53299;52.160;7.556;2022-11-25T02:15:17;100666.09;;;16.85;46.58
66484;BME280;53299;52.160;7.556;2022-11-25T02:17:43;100668.56;;;16.87;46.63
66484;BME280;53299;52.160;7.556;2022-11-25T02:20:18;100670.38;;;16.86;46.71
66484;BME280;53299;52.160;7.556;2022-11-25T02:25:36;100670.38;;;16.86;46.69
66484;BME280;53299;52.160;7.556;2022-11-25T02:30:29;100674.88;;;16.86;46.69
66484;BME280;53299;52.160;7.556;2022-11-25T02:32:57;100670.38;;;16.86;46.75
66484;BME280;53299;52.160;7.556;2022-11-25T02:38:18;100671.41;;;16.85;46.68
66484;BME280;53299;52.160;7.556;2022-11-25T02:43:10;100669.56;;;16.86;46.67
66484;BME280;53299;52.160;7.556;2022-11-25T02:45:46;100666.91;;;16.86;46.73
66484;BME280;53299;52.160;7.556;2022-11-25T02:48:12;100661.63;;;16.86;46.66
66484;BME280;53299;52.160;7.556;2022-11-25T02:50:38;100660.78;;;16.85;46.77
66484;BME280;53299;52.160;7.556;2022-11-25T02:53:03;100661.63;;;16.86;46.61
66484;BME280;53299;52.160;7.556;2022-11-25T02:55:28;100658.97;;;16.86;46.67
66484;BME280;53299;52.160;7.556;2022-11-25T02:57:54;100660.78;;;16.85;46.75
66484;BME280;53299;52.160;7.556;2022-11-25T03:00:19;100661.63;;;16.86;46.72
66484;BME280;53299;52.160;7.556;2022-11-25T03:02:44;100661.63;;;16.86;46.65
66484;BME280;53299;52.160;7.556;2022-11-25T03:05:10;100655.50;;;16.85;46.64
66484;BME280;53299;52.160;7.556;2022-11-25T03:07:35;100655.50;;;16.85;46.71
66484;BME280;53299;52.160;7.556;2022-11-25T03:10:00;100659.94;;;16.85;46.90
66484;BME280;53299;52.160;7.556;2022-11-25T03:12:26;100655.50;;;16.85;46.73
66484;BME280;53299;52.160;7.556;2022-11-25T03:14:51;100654.63;;;16.85;46.67
66484;BME280;53299;52.160;7.556;2022-11-25T03:17:16;100658.97;;;16.86;46.68
66484;BME280;53299;52.160;7.556;2022-11-25T03:19:41;100656.47;;;16.84;46.63
66484;BME280;53299;52.160;7.556;2022-11-25T03:22:07;100652.84;;;16.85;46.69
66484;BME280;53299;52.160;7.556;2022-11-25T03:24:32;100653.81;;;16.84;46.86
66484;BME280;53299;52.160;7.556;2022-11-25T03:26:58;100654.63;;;16.85;46.69
66484;BME280;53299;52.160;7.556;2022-11-25T03:29:23;100659.94;;;16.85;46.77
66484;BME280;53299;52.160;7.556;2022-11-25T03:31:49;100656.47;;;16.84;46.61
66484;BME280;53299;52.160;7.556;2022-11-25T03:34:14;100654.63;;;16.85;46.71
66484;BME280;53299;52.160;7.556;2022-11-25T03:36:39;100659.94;;;16.85;46.75
66484;BME280;53299;52.160;7.556;2022-11-25T03:39:04;100663.44;;;16.85;46.76
66484;BME280;53299;52.160;7.556;2022-11-25T03:41:30;100654.63;;;16.85;46.80
66484;BME280;53299;52.160;7.556;2022-11-25T03:43:55;100659.13;;;16.84;46.82
66484;BME280;53299;52.160;7.556;2022-11-25T03:46:20;100659.94;;;16.85;46.66
66484;BME280;53299;52.160;7.556;2022-11-25T03:48:45;100670.53;;;16.85;46.73
66484;BME280;53299;52.160;7.556;2022-11-25T03:51:11;100660.94;;;16.84;46.74
66484;BME280;53299;52.160;7.556;2022-11-25T03:53:36;100675.03;;;16.84;46.60
66484;BME280;53299;52.160;7.556;2022-11-25T03:56:02;100666.25;;;16.84;46.77
66484;BME280;53299;52.160;7.556;2022-11-25T03:58:27;100670.53;;;16.85;46.69
66484;BME280;53299;52.160;7.556;2022-11-25T04:00:52;100675.03;;;16.84;46.71
66484;BME280;53299;52.160;7.556;2022-11-25T04:03:17;100672.38;;;16.84;46.71
66484;BME280;53299;52.160;7.556;2022-11-25T04:05:43;100672.38;;;16.84;46.79
66484;BME280;53299;52.160;7.556;2022-11-25T04:08:08;100675.84;;;16.85;46.59
66484;BME280;53299;52.160;7.556;2022-11-25T04:10:33;100682.00;;;16.85;46.59
66484;BME280;53299;52.160;7.556;2022-11-25T04:12:58;100680.31;;;16.84;46.94
66484;BME280;53299;52.160;7.556;2022-11-25T04:15:24;100675.03;;;16.84;46.77
66484;BME280;53299;52.160;7.556;2022-11-25T04:17:49;100686.44;;;16.85;46.76
66484;BME280;53299;52.160;7.556;2022-11-25T04:20:14;100681.16;;;16.85;46.78
66484;BME280;53299;52.160;7.556;2022-11-25T04:22:40;100680.31;;;16.84;46.58
66484;BME280;53299;52.160;7.556;2022-11-25T04:25:06;100684.66;;;16.85;46.62
66484;BME280;53299;52.160;7.556;2022-11-25T04:27:31;100684.66;;;16.85;46.64
66484;BME280;53299;52.160;7.556;2022-11-25T04:29:57;100683.81;;;16.85;46.76
66484;BME280;53299;52.160;7.556;2022-11-25T04:32:22;100684.66;;;16.85;46.82
66484;BME280;53299;52.160;7.556;2022-11-25T04:34:47;100686.44;;;16.85;46.59
66484;BME280;53299;52.160;7.556;2022-11-25T04:37:13;100682.00;;;16.85;46.69
66484;BME280;53299;52.160;7.556;2022-11-25T04:39:38;100689.09;;;16.85;46.57
66484;BME280;53299;52.160;7.556;2022-11-25T04:42:03;100696.09;;;16.86;46.54
66484;BME280;53299;52.160;7.556;2022-11-25T04:44:29;100696.09;;;16.86;46.72
66484;BME280;53299;52.160;7.556;2022-11-25T04:46:54;100695.06;;;16.87;46.83
66484;BME280;53299;52.160;7.556;2022-11-25T04:49:19;100693.44;;;16.86;46.79
66484;BME280;53299;52.160;7.556;2022-11-25T04:51:44;100695.25;;;16.85;46.67
66484;BME280;53299;52.160;7.556;2022-11-25T04:54:09;100699.56;;;16.86;46.65
66484;BME280;53299;52.160;7.556;2022-11-25T04:56:35;100710.16;;;16.86;46.37
66484;BME280;53299;52.160;7.556;2022-11-25T04:59:00;100706.69;;;16.86;46.77
66484;BME280;53299;52.160;7.556;2022-11-25T05:01:25;100719.78;;;16.87;46.98
66484;BME280;53299;52.160;7.556;2022-11-25T05:03:50;100721.59;;;16.87;46.86
66484;BME280;53299;52.160;7.556;2022-11-25T05:06:16;100716.28;;;16.87;46.75
66484;BME280;53299;52.160;7.556;2022-11-25T05:08:41;100721.59;;;16.87;46.71
66484;BME280;53299;52.160;7.556;2022-11-25T05:11:06;100724.25;;;16.87;46.63
66484;BME280;53299;52.160;7.556;2022-11-25T05:13:31;100720.75;;;16.86;46.69
66484;BME280;53299;52.160;7.556;2022-11-25T05:15:58;100728.72;;;16.86;46.64
66484;BME280;53299;52.160;7.556;2022-11-25T05:18:24;100717.97;;;16.88;46.75
66484;BME280;53299;52.160;7.556;2022-11-25T05:20:49;100716.28;;;16.87;46.79
66484;BME280;53299;52.160;7.556;2022-11-25T05:23:14;100717.97;;;16.88;46.63
66484;BME280;53299;52.160;7.556;2022-11-25T05:25:39;100719.78;;;16.87;46.65
66484;BME280;53299;52.160;7.556;2022-11-25T05:28:05;100712.66;;;16.88;46.74
66484;BME280;53299;52.160;7.556;2022-11-25T05:30:30;100716.94;;;16.89;46.86
66484;BME280;53299;52.160;7.556;2022-11-25T05:32:55;100703.69;;;16.89;46.74
66484;BME280;53299;52.160;7.556;2022-11-25T05:35:20;100707.34;;;16.88;46.89
66484;BME280;53299;52.160;7.556;2022-11-25T05:37:46;100711.66;;;16.89;46.82
66484;BME280;53299;52.160;7.556;2022-11-25T05:40:12;100714.31;;;16.89;46.94
66484;BME280;53299;52.160;7.556;2022-11-25T05:42:37;100702.06;;;16.88;46.84
66484;BME280;53299;52.160;7.556;2022-11-25T05:45:02;100706.34;;;16.89;46.82
66484;BME280;53299;52.160;7.556;2022-11-25T05:47:28;100711.66;;;16.89;46.92
66484;BME280;53299;52.160;7.556;2022-11-25T05:49:53;100704.53;;;16.89;46.82
66484;BME280;53299;52.160;7.556;2022-11-25T05:52:18;100704.53;;;16.89;46.78
66484;BME280;53299;52.160;7.556;2022-11-25T05:54:44;100696.75;;;16.88;46.79
66484;BME280;53299;52.160;7.556;2022-11-25T05:57:09;100694.75;;;16.90;46.82
66484;BME280;53299;52.160;7.556;2022-11-25T05:59:34;100699.22;;;16.89;46.88
66484;BME280;53299;52.160;7.556;2022-11-25T06:01:59;100696.56;;;16.89;46.79
66484;BME280;53299;52.160;7.556;2022-11-25T06:04:25;100700.06;;;16.90;46.75
66484;BME280;53299;52.160;7.556;2022-11-25T06:06:50;100720.44;;;16.89;46.92
66484;BME280;53299;52.160;7.556;2022-11-25T06:09:15;100721.28;;;16.90;46.86
66484;BME280;53299;52.160;7.556;2022-11-25T06:11:40;100719.59;;;16.89;46.88
66484;BME280;53299;52.160;7.556;2022-11-25T06:14:06;100719.59;;;16.89;46.89
66484;BME280;53299;52.160;7.556;2022-11-25T06:16:31;100738.00;;;16.90;46.79
66484;BME280;53299;52.160;7.556;2022-11-25T06:18:56;100737.19;;;16.90;46.66
66484;BME280;53299;52.160;7.556;2022-11-25T06:21:21;100742.50;;;16.90;46.89
66484;BME280;53299;52.160;7.556;2022-11-25T06:23:47;100742.50;;;16.90;46.79
66484;BME280;53299;52.160;7.556;2022-11-25T06:26:20;100738.84;;;16.91;46.80
66484;BME280;53299;52.160;7.556;2022-11-25T06:28:46;100736.19;;;16.91;46.83
66484;BME280;53299;52.160;7.556;2022-11-25T06:31:22;100738.84;;;16.91;46.95
66484;BME280;53299;52.160;7.556;2022-11-25T06:33:49;100752.09;;;16.91;46.85
66484;BME280;53299;52.160;7.556;2022-11-25T06:36:16;100758.22;;;16.92;46.88
66484;BME280;53299;52.160;7.556;2022-11-25T06:38:43;100766.16;;;16.92;46.82
66484;BME280;53299;52.160;7.556;2022-11-25T06:41:09;100761.88;;;16.90;46.84
66484;BME280;53299;52.160;7.556;2022-11-25T06:43:34;100765.34;;;16.91;46.80
66484;BME280;53299;52.160;7.556;2022-11-25T06:46:06;100770.66;;;16.91;46.73
66484;BME280;53299;52.160;7.556;2022-11-25T06:48:32;100771.47;;;16.92;46.93
66484;BME280;53299;52.160;7.556;2022-11-25T06:50:59;100768.00;;;16.91;46.86
66484;BME280;53299;52.160;7.556;2022-11-25T06:53:25;100777.59;;;16.92;46.94
66484;BME280;53299;52.160;7.556;2022-11-25T06:56:01;100782.91;;;16.92;46.93
66484;BME280;53299;52.160;7.556;2022-11-25T06:58:26;100782.91;;;16.92;47.00
66484;BME280;53299;52.160;7.556;2022-11-25T07:00:51;100782.91;;;16.92;46.76
66484;BME280;53299;52.160;7.556;2022-11-25T07:03:17;100782.91;;;16.92;46.78
66484;BME280;53299;52.160;7.556;2022-11-25T07:05:42;100796.16;;;16.92;46.94
66484;BME280;53299;52.160;7.556;2022-11-25T07:08:07;100794.50;;;16.91;46.80
66484;BME280;53299;52.160;7.556;2022-11-25T07:10:33;100804.09;;;16.92;46.92
66484;BME280;53299;52.160;7.556;2022-11-25T07:12:58;100798.81;;;16.92;46.87
66484;BME280;53299;52.160;7.556;2022-11-25T07:15:23;100806.75;;;16.92;47.16
66484;BME280;53299;52.160;7.556;2022-11-25T07:17:49;100810.25;;;16.93;47.02
66484;BME280;53299;52.160;7.556;2022-11-25T07:20:14;100811.91;;;16.94;46.94
66484;BME280;53299;52.160;7.556;2022-11-25T07:22:39;100821.69;;;16.93;46.88
66484;BME280;53299;52.160;7.556;2022-11-25T07:25:05;100824.34;;;16.93;47.01
66484;BME280;53299;52.160;7.556;2022-11-25T07:27:31;100821.84;;;16.92;46.88
66484;BME280;53299;52.160;7.556;2022-11-25T07:29:57;100822.53;;;16.94;46.99
66484;BME280;53299;52.160;7.556;2022-11-25T07:32:22;100831.47;;;16.93;47.13
66484;BME280;53299;52.160;7.556;2022-11-25T07:34:49;100833.28;;;16.92;47.00
66484;BME280;53299;52.160;7.556;2022-11-25T07:37:14;100843.88;;;16.92;47.00
66484;BME280;53299;52.160;7.556;2022-11-25T07:39:39;100837.59;;;16.93;46.87
66484;BME280;53299;52.160;7.556;2022-11-25T07:42:05;100842.91;;;16.93;46.84
66484;BME280;53299;52.160;7.556;2022-11-25T07:44:30;100842.91;;;16.93;47.02
66484;BME280;53299;52.160;7.556;2022-11-25T07:46:55;100847.38;;;16.93;47.28
66484;BME280;53299;52.160;7.556;2022-11-25T07:49:22;100843.72;;;16.94;46.89
66484;BME280;53299;52.160;7.556;2022-11-25T07:51:49;100846.53;;;16.92;46.98
66484;BME280;53299;52.160;7.556;2022-11-25T07:54:16;100850.84;;;16.93;46.84
66484;BME280;53299;52.160;7.556;2022-11-25T07:56:41;100851.69;;;16.94;47.07
66484;BME280;53299;52.160;7.556;2022-11-25T07:59:11;100847.38;;;16.93;46.98
66484;BME280;53299;52.160;7.556;2022-11-25T08:01:36;100851.69;;;16.94;47.02
66484;BME280;53299;52.160;7.556;2022-11-25T08:04:02;100851.69;;;16.94;47.07
66484;BME280;53299;52.160;7.556;2022-11-25T08:06:28;100856.16;;;16.93;46.91
66484;BME280;53299;52.160;7.556;2022-11-25T08:08:54;100864.13;;;16.93;46.99
66484;BME280;53299;52.160;7.556;2022-11-25T08:11:24;100869.41;;;16.93;46.92
66484;BME280;53299;52.160;7.556;2022-11-25T08:13:50;100871.06;;;16.94;47.03
66484;BME280;53299;52.160;7.556;2022-11-25T08:16:18;100869.41;;;16.93;47.04
66484;BME280;53299;52.160;7.556;2022-11-25T08:18:44;100879.22;;;16.93;47.16
66484;BME280;53299;52.160;7.556;2022-11-25T08:21:12;100880.03;;;16.93;46.95
66484;BME280;53299;52.160;7.556;2022-11-25T08:23:38;100891.47;;;16.94;47.08
66484;BME280;53299;52.160;7.556;2022-11-25T08:26:09;100881.69;;;16.94;46.92
66484;BME280;53299;52.160;7.556;2022-11-25T08:28:35;100886.97;;;16.94;46.92
66484;BME280;53299;52.160;7.556;2022-11-25T08:31:09;100893.28;;;16.93;47.06
66484;BME280;53299;52.160;7.556;2022-11-25T08:33:34;100879.22;;;16.93;47.16
66484;BME280;53299;52.160;7.556;2022-11-25T08:36:00;100897.59;;;16.94;46.97
66484;BME280;53299;52.160;7.556;2022-11-25T08:38:27;100889.81;;;16.93;47.16
66484;BME280;53299;52.160;7.556;2022-11-25T08:40:53;100899.41;;;16.94;47.02
66484;BME280;53299;52.160;7.556;2022-11-25T08:43:19;100906.53;;;16.93;47.15
66484;BME280;53299;52.160;7.556;2022-11-25T08:45:44;100901.25;;;16.93;47.01
66484;BME280;53299;52.160;7.556;2022-11-25T08:48:09;100900.22;;;16.94;47.14
66484;BME280;53299;52.160;7.556;2022-11-25T08:50:34;100902.88;;;16.94;46.99
66484;BME280;53299;52.160;7.556;2022-11-25T08:53:00;100906.53;;;16.93;47.12
66484;BME280;53299;52.160;7.556;2022-11-25T08:55:25;100910.84;;;16.94;47.22
66484;BME280;53299;52.160;7.556;2022-11-25T08:57:51;100909.19;;;16.93;46.99
66484;BME280;53299;52.160;7.556;2022-11-25T09:00:16;100916.16;;;16.94;47.21
66484;BME280;53299;52.160;7.556;2022-11-25T09:02:41;100913.50;;;16.94;47.30
66484;BME280;53299;52.160;7.556;2022-11-25T09:05:07;100917.97;;;16.94;47.09
66484;BME280;53299;52.160;7.556;2022-11-25T09:07:32;100922.44;;;16.93;47.09
66484;BME280;53299;52.160;7.556;2022-11-25T09:09:58;100926.75;;;16.94;47.06
66484;BME280;53299;52.160;7.556;2022-11-25T09:12:23;100921.44;;;16.94;47.21
66484;BME280;53299;52.160;7.556;2022-11-25T09:14:48;100925.94;;;16.94;47.19
66484;BME280;53299;52.160;7.556;2022-11-25T09:17:13;100931.22;;;16.94;47.09
66484;BME280;53299;52.160;7.556;2022-11-25T09:19:39;100935.72;;;16.93;47.25
66484;BME280;53299;52.160;7.556;2022-11-25T09:22:04;100940.00;;;16.94;47.08
66484;BME280;53299;52.160;7.556;2022-11-25T09:24:29;100941.84;;;16.94;47.23
66484;BME280;53299;52.160;7.556;2022-11-25T09:26:55;100944.50;;;16.94;47.11
66484;BME280;53299;52.160;7.556;2022-11-25T09:29:20;100940.00;;;16.94;47.16
66484;BME280;53299;52.160;7.556;2022-11-25T09:31:45;100945.31;;;16.94;47.08
66484;BME280;53299;52.160;7.556;2022-11-25T09:34:11;100953.28;;;16.94;47.23
66484;BME280;53299;52.160;7.556;2022-11-25T09:36:36;100957.75;;;16.94;47.24
66484;BME280;53299;52.160;7.556;2022-11-25T09:39:01;100952.44;;;16.94;47.13
66484;BME280;53299;52.160;7.556;2022-11-25T09:55:44;100956.91;;;16.93;47.20
66484;BME280;53299;52.160;7.556;2022-11-25T09:58:34;100958.56;;;16.94;47.17
66484;BME280;53299;52.160;7.556;2022-11-25T10:01:05;100962.22;;;16.93;47.36
66484;BME280;53299;52.160;7.556;2022-11-25T10:03:46;100964.88;;;16.93;47.12
66484;BME280;53299;52.160;7.556;2022-11-25T10:06:16;100971.00;;;16.94;47.15
66484;BME280;53299;52.160;7.556;2022-11-25T10:08:47;100973.81;;;16.92;47.29
66484;BME280;53299;52.160;7.556;2022-11-25T10:11:20;100972.00;;;16.93;47.18
66484;BME280;53299;52.160;7.556;2022-11-25T10:16:29;100986.09;;;16.93;47.38
66484;BME280;53299;52.160;7.556;2022-11-25T10:19:02;100992.22;;;16.94;47.16
66484;BME280;53299;52.160;7.556;2022-11-25T10:21:31;100996.69;;;16.93;47.16
66484;BME280;53299;52.160;7.556;2022-11-25T10:23:56;100999.34;;;16.93;47.36
66484;BME280;53299;52.160;7.556;2022-11-25T10:26:28;101002.00;;;16.93;47.39
66484;BME280;53299;52.160;7.556;2022-11-25T10:31:38;101013.44;;;16.94;47.23
66484;BME280;53299;52.160;7.556;2022-11-25T10:36:50;101016.09;;;16.94;47.25
66484;BME280;53299;52.160;7.556;2022-11-25T10:39:24;101013.44;;;16.94;47.38
66484;BME280;53299;52.160;7.556;2022-11-25T10:44:34;101017.91;;;16.93;47.35
66484;BME280;53299;52.160;7.556;2022-11-25T10:52:27;101017.91;;;16.93;47.30
66484;BME280;53299;52.160;7.556;2022-11-25T10:55:07;101028.50;;;16.93;47.32
66484;BME280;53299;52.160;7.556;2022-11-25T10:57:32;101023.22;;;16.93;47.23
66484;BME280;53299;52.160;7.556;2022-11-25T10:59:59;101017.91;;;16.93;47.32
66484;BME280;53299;52.160;7.556;2022-11-25T11:02:27;101019.56;;;16.94;47.24
66484;BME280;53299;52.160;7.556;2022-11-25T11:05:21;101017.91;;;16.93;47.17
66484;BME280;53299;52.160;7.556;2022-11-25T11:07:44;101022.38;;;16.93;47.41
66484;BME280;53299;52.160;7.556;2022-11-25T11:13:02;101029.34;;;16.94;47.25
66484;BME280;53299;52.160;7.556;2022-11-25T11:15:53;101034.66;;;16.94;47.38
66484;BME280;53299;52.160;7.556;2022-11-25T11:18:29;101033.81;;;16.93;47.37
66484;BME280;53299;52.160;7.556;2022-11-25T11:21:05;101033.81;;;16.93;47.22
66484;BME280;53299;52.160;7.556;2022-11-25T11:23:46;101039.94;;;16.94;47.42
66484;BME280;53299;52.160;7.556;2022-11-25T11:26:28;101039.94;;;16.94;47.38
66484;BME280;53299;52.160;7.556;2022-11-25T11:29:14;101045.25;;;16.94;47.33
66484;BME280;53299;52.160;7.556;2022-11-25T11:31:44;101047.91;;;16.94;47.43
66484;BME280;53299;52.160;7.556;2022-11-25T11:42:43;101056.00;;;16.92;47.40
66484;BME280;53299;52.160;7.556;2022-11-25T11:45:37;101064.81;;;16.93;47.39
66484;BME280;53299;52.160;7.556;2022-11-25T11:56:41;101076.25;;;16.93;47.40
66484;BME280;53299;52.160;7.556;2022-11-25T11:59:42;101069.25;;;16.92;47.46
66484;BME280;53299;52.160;7.556;2022-11-25T12:02:18;101081.53;;;16.93;47.38
66484;BME280;53299;52.160;7.556;2022-11-25T12:07:33;101092.16;;;16.93;47.32
66484;BME280;53299;52.160;7.556;2022-11-25T12:12:35;101092.97;;;16.94;47.53
66484;BME280;53299;52.160;7.556;2022-11-25T12:15:14;101096.47;;;16.94;47.37
66484;BME280;53299;52.160;7.556;2022-11-25T12:17:47;101093.81;;;16.94;47.52
66484;BME280;53299;52.160;7.556;2022-11-25T12:22:54;101094.63;;;16.95;47.41
66484;BME280;53299;52.160;7.556;2022-11-25T12:25:24;101106.09;;;16.95;47.29
66484;BME280;53299;52.160;7.556;2022-11-25T12:30:32;101108.75;;;16.95;47.57
66484;BME280;53299;52.160;7.556;2022-11-25T12:33:05;101103.44;;;16.95;47.35
66484;BME280;53299;52.160;7.556;2022-11-25T12:36:01;101105.09;;;16.96;47.29
66484;BME280;53299;52.160;7.556;2022-11-25T12:38:41;101107.75;;;16.96;47.43
66484;BME280;53299;52.160;7.556;2022-11-25T12:43:58;101121.81;;;16.97;47.46
66484;BME280;53299;52.160;7.556;2022-11-25T12:49:01;101122.69;;;16.97;47.37
66484;BME280;53299;52.160;7.556;2022-11-25T13:08:24;101152.50;;;16.99;47.51
66484;BME280;53299;52.160;7.556;2022-11-25T13:16:12;101156.84;;;17.00;47.33
66484;BME280;53299;52.160;7.556;2022-11-25T13:18:41;101166.63;;;17.00;47.29
66484;BME280;53299;52.160;7.556;2022-11-25T13:21:09;101166.44;;;17.01;47.39
66484;BME280;53299;52.160;7.556;2022-11-25T13:23:55;101164.63;;;17.02;47.54
66484;BME280;53299;52.160;7.556;2022-11-25T13:28:55;101176.09;;;17.02;47.47
66484;BME280;53299;52.160;7.556;2022-11-25T13:34:01;101180.38;;;17.03;47.39
66484;BME280;53299;52.160;7.556;2022-11-25T13:36:45;101182.22;;;17.03;47.46
66484;BME280;53299;52.160;7.556;2022-11-25T13:39:27;101187.53;;;17.03;47.29
66484;BME280;53299;52.160;7.556;2022-11-25T13:44:48;101196.31;;;17.03;47.38
66484;BME280;53299;52.160;7.556;2022-11-25T13:49:54;101199.78;;;17.04;47.43
66484;BME280;53299;52.160;7.556;2022-11-25T13:52:29;101216.53;;;17.04;47.36
66484;BME280;53299;52.160;7.556;2022-11-25T13:54:55;101216.53;;;17.04;47.29
66484;BME280;53299;52.160;7.556;2022-11-25T13:57:25;101219.19;;;17.04;47.46
66484;BME280;53299;52.160;7.556;2022-11-25T13:59:54;101221.81;;;17.04;47.29
66484;BME280;53299;52.160;7.556;2022-11-25T14:08:18;101227.81;;;17.06;47.39
66484;BME280;53299;52.160;7.556;2022-11-25T14:10:57;101233.28;;;17.05;47.35
66484;BME280;53299;52.160;7.556;2022-11-25T14:19:41;101246.38;;;17.06;47.36
66484;BME280;53299;52.160;7.556;2022-11-25T14:25:03;101245.69;;;17.04;47.35
66484;BME280;53299;52.160;7.556;2022-11-25T14:27:35;101245.56;;;17.06;47.54
66484;BME280;53299;52.160;7.556;2022-11-25T14:30:06;101248.34;;;17.04;47.51
66484;BME280;53299;52.160;7.556;2022-11-25T14:32:52;101255.34;;;17.05;47.28
66484;BME280;53299;52.160;7.556;2022-11-25T14:35:21;101250.03;;;17.05;47.59
66484;BME280;53299;52.160;7.556;2022-11-25T14:37:55;101260.50;;;17.07;47.48
66484;BME280;53299;52.160;7.556;2022-11-25T14:40:27;101261.47;;;17.06;47.52
66484;BME280;53299;52.160;7.556;2022-11-25T14:43:02;101261.47;;;17.06;47.46
66484;BME280;53299;52.160;7.556;2022-11-25T14:45:31;101249.88;;;17.07;47.44
66484;BME280;53299;52.160;7.556;2022-11-25T14:47:57;101262.28;;;17.06;47.58
66484;BME280;53299;52.160;7.556;2022-11-25T14:50:23;101259.81;;;17.05;47.58
66484;BME280;53299;52.160;7.556;2022-11-25T14:52:49;101275.56;;;17.06;47.50
66484;BME280;53299;52.160;7.556;2022-11-25T14:55:29;101283.50;;;17.06;47.51
66484;BME280;53299;52.160;7.556;2022-11-25T14:57:55;101288.81;;;17.06;47.43
66484;BME280;53299;52.160;7.556;2022-11-25T15:00:20;101288.00;;;17.06;47.39
66484;BME280;53299;52.160;7.556;2022-11-25T15:02:58;101299.44;;;17.06;47.35